Time;durP1;ratioP1;P1;durP2;ratioP2;P2;SDS_P1;SDS_P2;PMS_P1;PMS_P2;Temp;Humidity;BMP_temperature;BMP_pressure;BME280_temperature;BME280_humidity;BME280_pressure;Samples;Min_cycle;Max_cycle;Signal;HPM_P1;HPM_P2
2023/05/09 00:04:54;;;;;;;22.60;15.35;;;;;;;;;;10043975;28;20112;-71
2023/05/09 00:09:51;;;;;;;21.20;15.65;;;;;;;;;;10040631;28;20085;-70
2023/05/09 00:14:47;;;;;;;18.75;14.48;;;;;;;;;;10041465;28;20490;-70
2023/05/09 00:19:42;;;;;;;17.65;14.55;;;;;;;;;;10052708;28;20070;-72
2023/05/09 00:24:36;;;;;;;16.65;12.98;;;;;;;;;;10036785;28;20472;-71
2023/05/09 00:29:29;;;;;;;18.25;13.02;;;;;;;;;;10042418;28;20148;-71
2023/05/09 00:34:24;;;;;;;15.55;12.27;;;;;;;;;;10054071;28;20045;-71
2023/05/09 00:39:17;;;;;;;20.45;13.85;;;;;;;;;;10045512;28;20398;-71
2023/05/09 00:44:11;;;;;;;19.60;12.82;;;;;;;;;;10039405;28;20092;-71
2023/05/09 00:49:05;;;;;;;20.38;13.82;;;;;;;;;;10027752;28;21194;-72
2023/05/09 00:53:59;;;;;;;18.58;14.07;;;;;;;;;;10053345;28;20408;-72
2023/05/09 00:58:52;;;;;;;23.98;13.13;;;;;;;;;;10053753;28;20048;-71
2023/05/09 01:03:46;;;;;;;19.90;14.32;;;;;;;;;;10043689;28;20049;-71
2023/05/09 01:09:01;;;;;;;20.10;12.35;;;;;;;;;;10020968;28;20141;-72
2023/05/09 01:14:45;;;;;;;24.98;12.82;;;;;;;;;;10028169;28;20061;-71
2023/05/09 01:19:44;;;;;;;20.92;12.95;;;;;;;;;;9891775;28;20054;-71
2023/05/09 01:25:06;;;;;;;21.95;13.07;;;;;;;;;;10040082;28;20132;-71
2023/05/09 01:30:20;;;;;;;23.55;11.88;;;;;;;;;;10044991;28;20586;-71
2023/05/09 01:35:14;;;;;;;25.73;12.93;;;;;;;;;;10055864;28;20049;-70
2023/05/09 01:40:15;;;;;;;29.15;13.15;;;;;;;;;;10040717;28;20066;-71
2023/05/09 01:45:11;;;;;;;22.35;14.10;;;;;;;;;;10039606;28;20046;-70
2023/05/09 01:50:06;;;;;;;19.98;13.43;;;;;;;;;;10049646;28;20132;-70
2023/05/09 01:55:00;;;;;;;24.83;14.00;;;;;;;;;;10026069;28;20073;-70
2023/05/09 01:59:53;;;;;;;21.65;14.27;;;;;;;;;;10030190;28;20080;-71
2023/05/09 02:04:49;;;;;;;23.35;13.95;;;;;;;;;;10037587;28;20112;-71
2023/05/09 02:09:42;;;;;;;19.83;14.07;;;;;;;;;;10009959;28;20144;-70
2023/05/09 02:14:36;;;;;;;18.42;11.30;;;;;;;;;;10029587;28;20058;-70
2023/05/09 02:19:28;;;;;;;19.95;11.57;;;;;;;;;;10048670;28;20041;-71
2023/05/09 02:24:21;;;;;;;19.40;13.98;;;;;;;;;;10032068;28;20049;-70
2023/05/09 02:29:16;;;;;;;18.98;13.65;;;;;;;;;;10030135;28;20496;-71
2023/05/09 02:34:10;;;;;;;19.58;13.88;;;;;;;;;;10023109;28;20424;-71
2023/05/09 02:39:04;;;;;;;20.73;13.18;;;;;;;;;;10042001;28;20484;-71
2023/05/09 02:43:57;;;;;;;20.10;13.07;;;;;;;;;;10036570;28;20058;-70
2023/05/09 02:48:51;;;;;;;20.63;13.05;;;;;;;;;;10052691;28;20046;-71
2023/05/09 02:53:44;;;;;;;18.23;11.80;;;;;;;;;;10035962;28;20402;-70
2023/05/09 02:58:37;;;;;;;19.42;14.00;;;;;;;;;;10033554;28;20061;-71
2023/05/09 03:03:33;;;;;;;18.90;12.93;;;;;;;;;;10028682;28;20061;-70
2023/05/09 03:08:28;;;;;;;19.52;14.90;;;;;;;;;;10059791;28;20470;-70
2023/05/09 03:13:20;;;;;;;21.27;17.77;;;;;;;;;;10027690;28;20045;-70
2023/05/09 03:18:14;;;;;;;25.70;15.90;;;;;;;;;;10034761;28;20112;-70
2023/05/09 03:23:08;;;;;;;21.98;16.73;;;;;;;;;;10044437;28;20050;-70
2023/05/09 03:28:01;;;;;;;26.27;17.58;;;;;;;;;;10016061;28;20417;-70
2023/05/09 03:32:54;;;;;;;34.38;18.83;;;;;;;;;;10056568;28;20054;-70
2023/05/09 03:37:49;;;;;;;28.23;17.75;;;;;;;;;;10031657;28;20092;-70
2023/05/09 03:42:42;;;;;;;25.15;17.33;;;;;;;;;;10035612;28;20424;-70
2023/05/09 03:47:35;;;;;;;20.13;14.85;;;;;;;;;;10030822;28;20100;-71
2023/05/09 03:52:28;;;;;;;24.38;16.45;;;;;;;;;;10056617;28;20062;-71
2023/05/09 03:57:22;;;;;;;23.30;15.23;;;;;;;;;;10064985;28;20136;-70
2023/05/09 04:02:17;;;;;;;29.52;14.15;;;;;;;;;;10029146;28;20085;-70
2023/05/09 04:07:11;;;;;;;23.42;15.05;;;;;;;;;;10030201;28;20057;-71
2023/05/09 04:12:06;;;;;;;19.65;16.77;;;;;;;;;;10043811;28;20046;-70
2023/05/09 04:16:59;;;;;;;20.60;16.15;;;;;;;;;;10037159;28;20052;-70
2023/05/09 04:21:52;;;;;;;26.25;16.25;;;;;;;;;;10039857;28;20123;-71
2023/05/09 04:26:45;;;;;;;19.50;17.42;;;;;;;;;;10061626;28;20057;-70
2023/05/09 04:31:42;;;;;;;19.83;15.43;;;;;;;;;;10068042;28;20057;-70
2023/05/09 04:36:37;;;;;;;23.65;13.02;;;;;;;;;;10045167;28;20148;-70
2023/05/09 04:41:31;;;;;;;20.70;14.93;;;;;;;;;;10040003;28;20116;-70
2023/05/09 04:46:24;;;;;;;23.58;15.85;;;;;;;;;;10062793;28;20049;-70
2023/05/09 04:51:17;;;;;;;25.33;16.42;;;;;;;;;;10049028;28;20053;-70
2023/05/09 04:56:11;;;;;;;21.00;16.33;;;;;;;;;;10054336;28;20088;-71
2023/05/09 05:01:05;;;;;;;28.42;16.25;;;;;;;;;;10065757;28;20103;-70
2023/05/09 05:05:59;;;;;;;23.67;15.23;;;;;;;;;;10051710;28;20141;-70
2023/05/09 05:10:52;;;;;;;23.48;16.35;;;;;;;;;;10045041;28;20052;-71
2023/05/09 05:15:45;;;;;;;25.02;16.23;;;;;;;;;;10036931;28;20053;-71
2023/05/09 05:20:42;;;;;;;23.05;14.90;;;;;;;;;;10049447;28;20085;-70
2023/05/09 05:25:35;;;;;;;19.38;13.30;;;;;;;;;;10047755;28;20056;-68
2023/05/09 05:30:29;;;;;;;21.40;16.95;;;;;;;;;;10026430;28;20501;-67
2023/05/09 05:35:27;;;;;;;22.63;18.38;;;;;;;;;;10046058;28;20065;-71
2023/05/09 05:40:21;;;;;;;26.15;19.27;;;;;;;;;;10039036;28;20060;-72
2023/05/09 05:45:17;;;;;;;30.55;22.70;;;;;;;;;;10040378;28;20049;-73
2023/05/09 05:50:14;;;;;;;22.10;17.43;;;;;;;;;;10029154;28;20054;-71
2023/05/09 05:55:16;;;;;;;20.85;15.38;;;;;;;;;;10114197;28;20136;-70
2023/05/09 06:00:13;;;;;;;18.92;13.52;;;;;;;;;;10051654;28;20414;-68
2023/05/09 06:05:14;;;;;;;16.13;14.05;;;;;;;;;;10067359;28;20500;-70
2023/05/09 06:10:08;;;;;;;14.70;11.90;;;;;;;;;;10076030;28;20406;-70
2023/05/09 06:15:04;;;;;;;13.73;11.32;;;;;;;;;;10070909;28;20060;-72
2023/05/09 06:20:00;;;;;;;12.05;10.85;;;;;;;;;;10067357;28;20053;-72
2023/05/09 06:24:56;;;;;;;10.90;9.80;;;;;;;;;;10065056;28;20045;-74
2023/05/09 06:29:51;;;;;;;12.20;9.50;;;;;;;;;;10066956;28;20049;-77
2023/05/09 06:34:45;;;;;;;10.35;8.95;;;;;;;;;;10060677;28;20475;-78
2023/05/09 06:39:39;;;;;;;9.85;7.70;;;;;;;;;;10085480;28;20060;-77
2023/05/09 06:44:33;;;;;;;11.55;9.52;;;;;;;;;;10070868;28;20500;-77
2023/05/09 06:49:26;;;;;;;10.38;8.20;;;;;;;;;;10057045;28;20050;-78
2023/05/09 06:54:20;;;;;;;12.68;8.77;;;;;;;;;;10055101;28;20398;-77
2023/05/09 06:59:15;;;;;;;10.18;8.68;;;;;;;;;;10083162;28;20083;-77
2023/05/09 07:04:08;;;;;;;9.65;8.65;;;;;;;;;;10060461;28;20045;-77
2023/05/09 07:09:03;;;;;;;9.43;8.50;;;;;;;;;;10036064;28;20418;-78
2023/05/09 07:13:55;;;;;;;10.63;8.82;;;;;;;;;;10056976;28;20049;-78
2023/05/09 07:18:49;;;;;;;11.73;10.52;;;;;;;;;;10032584;28;20096;-78
2023/05/09 07:23:42;;;;;;;10.40;9.40;;;;;;;;;;10034464;28;20058;-78
2023/05/09 07:28:35;;;;;;;11.75;9.27;;;;;;;;;;10040673;28;20054;-78
2023/05/09 07:33:29;;;;;;;9.70;8.80;;;;;;;;;;10033576;28;20084;-79
2023/05/09 07:38:22;;;;;;;13.98;8.75;;;;;;;;;;10060363;28;20400;-76
2023/05/09 07:43:16;;;;;;;11.07;9.98;;;;;;;;;;10047861;28;20124;-78
2023/05/09 07:48:09;;;;;;;12.25;11.05;;;;;;;;;;10040807;28;20053;-76
2023/05/09 07:53:03;;;;;;;11.38;9.73;;;;;;;;;;10032671;28;20057;-77
2023/05/09 07:57:56;;;;;;;9.65;8.75;;;;;;;;;;10036667;28;20072;-76
2023/05/09 08:02:52;;;;;;;12.57;8.68;;;;;;;;;;10036324;28;20123;-76
2023/05/09 08:07:46;;;;;;;11.40;9.30;;;;;;;;;;10044108;28;20049;-76
2023/05/09 08:12:39;;;;;;;10.40;9.10;;;;;;;;;;10037090;28;20108;-76
2023/05/09 08:17:32;;;;;;;10.18;9.18;;;;;;;;;;10032628;28;20056;-75
2023/05/09 08:22:25;;;;;;;11.63;8.65;;;;;;;;;;10032486;28;20497;-76
2023/05/09 08:27:18;;;;;;;13.27;10.23;;;;;;;;;;10033034;28;20116;-76
2023/05/09 08:32:11;;;;;;;13.82;10.18;;;;;;;;;;10031509;28;20120;-76
2023/05/09 08:37:06;;;;;;;12.30;9.93;;;;;;;;;;10029053;28;20559;-76
2023/05/09 08:42:08;;;;;;;14.65;11.60;;;;;;;;;;10028439;28;20045;-76
2023/05/09 08:47:02;;;;;;;14.18;11.50;;;;;;;;;;10034315;28;20053;-76
2023/05/09 08:51:56;;;;;;;13.07;11.70;;;;;;;;;;10030336;28;20058;-75
2023/05/09 08:56:50;;;;;;;11.35;10.07;;;;;;;;;;10036376;28;20076;-77
2023/05/09 09:01:44;;;;;;;15.40;10.05;;;;;;;;;;10031400;28;20509;-76
2023/05/09 09:06:39;;;;;;;9.70;8.70;;;;;;;;;;10054257;28;20136;-76
2023/05/09 09:11:34;;;;;;;9.65;8.65;;;;;;;;;;10045942;28;20045;-72
2023/05/09 09:16:28;;;;;;;11.73;9.80;;;;;;;;;;10028884;28;20054;-73
2023/05/09 09:21:22;;;;;;;10.35;8.82;;;;;;;;;;10040788;28;20076;-73
2023/05/09 09:26:15;;;;;;;10.05;8.85;;;;;;;;;;10043309;28;20049;-73
2023/05/09 09:31:23;;;;;;;8.98;8.13;;;;;;;;;;10033115;28;20053;-73
2023/05/09 09:36:16;;;;;;;9.63;8.73;;;;;;;;;;10048771;28;20057;-72
2023/05/09 09:41:12;;;;;;;10.48;8.00;;;;;;;;;;10038539;28;20046;-73
2023/05/09 09:46:05;;;;;;;8.70;7.75;;;;;;;;;;10034994;28;20038;-75
2023/05/09 09:51:03;;;;;;;11.95;8.57;;;;;;;;;;10036167;28;20070;-75
2023/05/09 09:55:58;;;;;;;9.45;7.68;;;;;;;;;;10039824;28;20057;-75
2023/05/09 10:01:18;;;;;;;8.38;7.43;;;;;;;;;;10043522;28;20428;-74
2023/05/09 10:06:15;;;;;;;10.95;6.80;;;;;;;;;;10026982;28;20065;-74
2023/05/09 10:11:09;;;;;;;9.20;6.45;;;;;;;;;;10034779;28;20515;-73
2023/05/09 10:16:05;;;;;;;8.38;5.70;;;;;;;;;;10049114;28;20045;-73
2023/05/09 10:21:03;;;;;;;6.43;5.65;;;;;;;;;;10037825;28;20046;-74
2023/05/09 10:26:08;;;;;;;8.80;5.90;;;;;;;;;;10028897;28;20513;-73
2023/05/09 10:31:16;;;;;;;6.70;6.00;;;;;;;;;;10025107;28;20042;-74
2023/05/09 10:36:09;;;;;;;6.63;5.05;;;;;;;;;;10048250;28;20107;-73
2023/05/09 10:41:04;;;;;;;6.45;5.18;;;;;;;;;;10040805;28;20046;-73
2023/05/09 10:45:57;;;;;;;6.05;5.38;;;;;;;;;;10033187;28;20053;-73
2023/05/09 10:50:52;;;;;;;6.65;5.95;;;;;;;;;;10038858;28;20080;-72
2023/05/09 10:55:57;;;;;;;5.82;4.50;;;;;;;;;;10046816;28;20120;-73
2023/05/09 11:00:52;;;;;;;7.93;5.03;;;;;;;;;;10039271;28;20042;-73
2023/05/09 11:05:51;;;;;;;8.07;5.20;;;;;;;;;;10045737;28;20138;-73
2023/05/09 11:10:47;;;;;;;7.82;5.07;;;;;;;;;;10042804;28;20054;-74
2023/05/09 11:15:53;;;;;;;8.30;5.07;;;;;;;;;;10031681;28;20058;-71
2023/05/09 11:20:50;;;;;;;9.70;5.43;;;;;;;;;;10034261;28;20056;-71
2023/05/09 11:25:46;;;;;;;8.15;4.35;;;;;;;;;;10049790;28;20072;-72
2023/05/09 11:30:41;;;;;;;5.43;4.93;;;;;;;;;;10053419;28;20054;-71
2023/05/09 11:35:36;;;;;;;9.77;5.05;;;;;;;;;;10042706;28;20065;-71
2023/05/09 11:40:30;;;;;;;4.97;4.53;;;;;;;;;;10034855;28;20413;-71
2023/05/09 11:45:29;;;;;;;6.60;5.27;;;;;;;;;;10030394;28;20092;-70
2023/05/09 11:50:22;;;;;;;10.57;4.47;;;;;;;;;;10039941;28;20057;-73
2023/05/09 11:55:17;;;;;;;4.85;4.35;;;;;;;;;;10028308;28;20081;-74
2023/05/09 12:00:13;;;;;;;5.30;4.50;;;;;;;;;;10037859;28;20049;-74
2023/05/09 12:05:15;;;;;;;10.55;3.83;;;;;;;;;;10046690;28;20124;-74
2023/05/09 12:10:11;;;;;;;7.70;4.40;;;;;;;;;;10047512;28;20485;-74
2023/05/09 12:15:08;;;;;;;5.72;3.85;;;;;;;;;;10033366;28;20054;-74
2023/05/09 12:20:03;;;;;;;6.10;4.50;;;;;;;;;;10032717;28;20046;-73
2023/05/09 12:24:58;;;;;;;7.03;4.30;;;;;;;;;;10038177;28;20530;-72
2023/05/09 12:29:52;;;;;;;4.00;3.63;;;;;;;;;;10045975;28;20052;-73
2023/05/09 12:34:50;;;;;;;4.03;3.63;;;;;;;;;;10038701;28;20041;-72
2023/05/09 12:40:03;;;;;;;13.43;5.97;;;;;;;;;;10036279;28;20054;-72
2023/05/09 12:44:56;;;;;;;5.40;3.40;;;;;;;;;;10036696;28;20045;-72
2023/05/09 12:49:51;;;;;;;5.22;3.97;;;;;;;;;;10034685;28;20394;-72
2023/05/09 12:54:45;;;;;;;5.97;3.65;;;;;;;;;;10020024;28;20065;-71
2023/05/09 12:59:42;;;;;;;7.22;4.90;;;;;;;;;;10031078;28;20764;-72
2023/05/09 13:04:36;;;;;;;7.00;3.70;;;;;;;;;;10038460;28;20033;-71
2023/05/09 13:09:32;;;;;;;3.90;3.58;;;;;;;;;;10039524;28;20132;-71
2023/05/09 13:14:25;;;;;;;4.18;3.78;;;;;;;;;;10040713;28;20050;-71
2023/05/09 13:19:20;;;;;;;5.93;4.00;;;;;;;;;;10026355;28;20046;-71
2023/05/09 13:24:13;;;;;;;4.25;3.50;;;;;;;;;;10033846;28;20058;-71
2023/05/09 13:29:06;;;;;;;8.13;3.45;;;;;;;;;;10039173;28;20132;-71
2023/05/09 13:34:00;;;;;;;8.77;3.88;;;;;;;;;;10039804;28;20046;-71
2023/05/09 13:38:54;;;;;;;6.80;4.25;;;;;;;;;;10038076;28;20050;-71
2023/05/09 13:43:46;;;;;;;4.85;4.43;;;;;;;;;;10017731;28;20058;-70
2023/05/09 13:48:40;;;;;;;4.70;4.30;;;;;;;;;;10035572;28;20540;-71
2023/05/09 13:53:34;;;;;;;5.85;4.80;;;;;;;;;;10027583;28;20085;-68
2023/05/09 13:58:30;;;;;;;10.23;6.07;;;;;;;;;;10020937;28;20042;-68
2023/05/09 14:03:23;;;;;;;5.57;4.30;;;;;;;;;;10034064;28;20140;-68
2023/05/09 14:08:17;;;;;;;5.70;5.18;;;;;;;;;;10023480;28;20050;-72
2023/05/09 14:13:11;;;;;;;5.75;5.18;;;;;;;;;;10028683;28;20088;-72
2023/05/09 14:18:04;;;;;;;7.10;5.43;;;;;;;;;;10029065;28;20080;-71
2023/05/09 14:22:59;;;;;;;11.70;6.30;;;;;;;;;;10029015;28;20073;-70
2023/05/09 14:27:53;;;;;;;6.00;4.90;;;;;;;;;;10028345;28;20315;-71
2023/05/09 14:32:47;;;;;;;6.55;5.72;;;;;;;;;;10045272;28;20104;-70
2023/05/09 14:37:40;;;;;;;5.50;5.07;;;;;;;;;;10034601;28;20054;-70
2023/05/09 14:42:35;;;;;;;11.07;6.10;;;;;;;;;;10031316;28;20088;-70
2023/05/09 14:47:28;;;;;;;5.53;5.03;;;;;;;;;;10033810;28;20049;-69
2023/05/09 14:52:22;;;;;;;6.15;5.55;;;;;;;;;;10034593;28;20054;-68
2023/05/09 14:57:15;;;;;;;8.40;5.47;;;;;;;;;;10032875;28;20512;-73
2023/05/09 15:02:09;;;;;;;5.93;5.43;;;;;;;;;;10035367;28;20069;-74
2023/05/09 15:07:04;;;;;;;17.17;5.75;;;;;;;;;;10026457;28;20049;-66
2023/05/09 15:11:58;;;;;;;5.32;4.90;;;;;;;;;;10046285;28;20050;-68
2023/05/09 15:16:53;;;;;;;5.28;4.85;;;;;;;;;;10048295;28;20449;-67
2023/05/09 15:21:47;;;;;;;7.63;4.97;;;;;;;;;;10050603;28;20042;-67
2023/05/09 15:26:40;;;;;;;5.72;5.15;;;;;;;;;;10050837;28;20131;-64
2023/05/09 15:31:33;;;;;;;6.72;5.20;;;;;;;;;;10049133;28;20137;-64
2023/05/09 15:36:28;;;;;;;6.60;5.43;;;;;;;;;;10051407;28;20396;-65
2023/05/09 15:41:22;;;;;;;6.30;5.47;;;;;;;;;;10029581;28;20045;-64
2023/05/09 15:46:15;;;;;;;6.07;5.55;;;;;;;;;;10039621;28;20042;-63
2023/05/09 15:51:08;;;;;;;10.00;7.25;;;;;;;;;;10034713;28;20050;-64
2023/05/09 15:56:03;;;;;;;8.13;6.40;;;;;;;;;;10031048;28;20497;-64
2023/05/09 16:00:56;;;;;;;9.10;7.63;;;;;;;;;;10029756;28;20050;-64
2023/05/09 16:05:50;;;;;;;7.75;6.90;;;;;;;;;;10029254;28;20156;-68
2023/05/09 16:10:47;;;;;;;7.45;6.68;;;;;;;;;;10042293;28;20143;-64
2023/05/09 16:15:41;;;;;;;9.37;7.27;;;;;;;;;;10036042;28;20048;-71
2023/05/09 16:20:35;;;;;;;8.50;7.65;;;;;;;;;;10037888;28;20331;-64
2023/05/09 16:25:29;;;;;;;8.60;7.70;;;;;;;;;;10036999;28;20108;-64
2023/05/09 16:30:26;;;;;;;10.10;8.38;;;;;;;;;;10033175;28;20045;-64
2023/05/09 16:35:22;;;;;;;13.02;8.00;;;;;;;;;;10028150;28;20081;-64
2023/05/09 16:40:16;;;;;;;10.35;8.50;;;;;;;;;;10027521;28;20050;-64
2023/05/09 16:45:10;;;;;;;10.30;9.20;;;;;;;;;;10031251;28;20411;-64
2023/05/09 16:50:04;;;;;;;9.50;8.55;;;;;;;;;;10028755;28;20088;-64
2023/05/09 16:54:58;;;;;;;9.43;7.63;;;;;;;;;;10024352;28;20092;-64
2023/05/09 16:59:52;;;;;;;8.98;7.35;;;;;;;;;;10039765;28;20053;-64
2023/05/09 17:04:45;;;;;;;9.63;6.75;;;;;;;;;;10028094;28;20058;-64
2023/05/09 17:09:39;;;;;;;7.60;6.85;;;;;;;;;;10028773;28;20136;-64
2023/05/09 17:14:33;;;;;;;12.15;7.22;;;;;;;;;;10030245;28;20133;-64
2023/05/09 17:19:27;;;;;;;8.05;5.57;;;;;;;;;;10034224;28;20065;-64
2023/05/09 17:24:20;;;;;;;6.53;5.68;;;;;;;;;;10032337;28;20046;-65
2023/05/09 17:29:13;;;;;;;6.72;6.03;;;;;;;;;;10026601;28;20042;-64
2023/05/09 17:34:08;;;;;;;6.53;5.90;;;;;;;;;;10028888;28;20053;-64
2023/05/09 17:39:01;;;;;;;5.88;5.38;;;;;;;;;;10035031;28;20057;-64
2023/05/09 17:43:56;;;;;;;8.02;6.40;;;;;;;;;;10026528;28;20468;-64
2023/05/09 17:48:50;;;;;;;7.97;5.95;;;;;;;;;;10028677;28;20096;-64
2023/05/09 17:53:43;;;;;;;11.10;5.60;;;;;;;;;;10025692;28;20420;-64
2023/05/09 17:58:36;;;;;;;7.57;5.78;;;;;;;;;;10027999;28;21487;-64
2023/05/09 18:03:31;;;;;;;6.85;4.95;;;;;;;;;;10026464;28;20108;-64
2023/05/09 18:08:25;;;;;;;7.03;5.38;;;;;;;;;;10037877;28;20045;-64
2023/05/09 18:13:20;;;;;;;11.00;7.20;;;;;;;;;;10028185;28;20056;-64
2023/05/09 18:18:14;;;;;;;7.50;5.90;;;;;;;;;;10029338;28;20056;-64
2023/05/09 18:23:08;;;;;;;5.75;5.25;;;;;;;;;;10007068;28;20050;-62
2023/05/09 18:28:02;;;;;;;5.95;4.80;;;;;;;;;;10020415;28;20057;-63
2023/05/09 18:32:58;;;;;;;7.85;4.85;;;;;;;;;;10057812;28;20052;-63
2023/05/09 18:37:52;;;;;;;7.35;5.18;;;;;;;;;;10053761;28;20078;-63
2023/05/09 18:42:46;;;;;;;5.07;4.63;;;;;;;;;;10026842;28;20065;-63
2023/05/09 18:47:40;;;;;;;6.30;5.25;;;;;;;;;;10022861;28;21519;-64
2023/05/09 18:52:33;;;;;;;13.05;5.97;;;;;;;;;;10020885;28;20058;-62
2023/05/09 18:57:27;;;;;;;7.45;5.72;;;;;;;;;;10029834;28;20053;-62
2023/05/09 19:02:21;;;;;;;5.50;4.80;;;;;;;;;;10028776;28;20077;-62
2023/05/09 19:07:15;;;;;;;5.22;4.72;;;;;;;;;;10018597;28;20054;-62
2023/05/09 19:12:08;;;;;;;7.90;4.97;;;;;;;;;;10021905;28;20394;-65
2023/05/09 19:17:02;;;;;;;8.98;4.75;;;;;;;;;;10029461;28;20129;-63
2023/05/09 19:21:56;;;;;;;5.68;5.13;;;;;;;;;;10033582;28;20080;-64
2023/05/09 19:26:49;;;;;;;4.80;4.40;;;;;;;;;;10039376;28;20532;-65
2023/05/09 19:31:42;;;;;;;5.53;4.53;;;;;;;;;;10030164;28;20504;-65
2023/05/09 19:36:36;;;;;;;6.25;5.65;;;;;;;;;;10031751;28;20041;-65
2023/05/09 19:41:30;;;;;;;8.18;5.10;;;;;;;;;;10026280;28;20085;-63
2023/05/09 19:46:24;;;;;;;5.43;4.93;;;;;;;;;;10019628;28;20052;-64
2023/05/09 19:51:22;;;;;;;6.75;4.90;;;;;;;;;;10025937;28;20045;-64
2023/05/09 19:56:16;;;;;;;4.95;4.28;;;;;;;;;;10042968;28;20110;-65
2023/05/09 20:01:09;;;;;;;9.00;5.35;;;;;;;;;;10027888;28;20076;-64
2023/05/09 20:06:03;;;;;;;6.90;6.15;;;;;;;;;;10028534;28;20119;-66
2023/05/09 20:10:56;;;;;;;8.40;5.32;;;;;;;;;;10029889;28;20081;-66
2023/05/09 20:15:49;;;;;;;6.88;5.53;;;;;;;;;;10034462;28;20510;-62
2023/05/09 20:20:42;;;;;;;6.90;5.07;;;;;;;;;;10030097;28;20048;-62
2023/05/09 20:25:35;;;;;;;6.30;5.00;;;;;;;;;;10028025;28;20120;-59
2023/05/09 20:30:29;;;;;;;7.90;6.22;;;;;;;;;;10026771;28;20062;-61
2023/05/09 20:35:22;;;;;;;8.23;5.50;;;;;;;;;;10020927;28;20057;-59
2023/05/09 20:40:15;;;;;;;6.07;5.45;;;;;;;;;;10030748;28;20441;-58
2023/05/09 20:45:10;;;;;;;6.47;5.88;;;;;;;;;;10033094;28;20046;-58
2023/05/09 20:50:08;;;;;;;7.90;5.03;;;;;;;;;;10026296;28;20053;-59
2023/05/09 20:55:01;;;;;;;5.78;5.28;;;;;;;;;;10028142;28;20064;-59
2023/05/09 20:59:54;;;;;;;6.22;5.63;;;;;;;;;;10020141;28;20046;-57
2023/05/09 21:04:47;;;;;;;8.82;5.05;;;;;;;;;;10026430;28;20111;-58
2023/05/09 21:09:40;;;;;;;8.48;5.40;;;;;;;;;;10027952;28;20069;-58
2023/05/09 21:14:33;;;;;;;6.50;5.10;;;;;;;;;;10023366;28;20389;-58
2023/05/09 21:19:27;;;;;;;7.63;5.00;;;;;;;;;;10051716;28;20049;-58
2023/05/09 21:24:21;;;;;;;6.07;5.30;;;;;;;;;;10057348;28;20049;-59
2023/05/09 21:29:15;;;;;;;7.13;5.78;;;;;;;;;;10056606;28;20046;-59
2023/05/09 21:34:09;;;;;;;7.70;5.60;;;;;;;;;;10055938;28;20100;-58
2023/05/09 21:39:08;;;;;;;6.43;5.30;;;;;;;;;;10056488;28;20054;-59
2023/05/09 21:44:02;;;;;;;6.78;5.50;;;;;;;;;;10057209;28;20069;-59
2023/05/09 21:48:56;;;;;;;5.60;5.03;;;;;;;;;;10029177;28;20108;-58
2023/05/09 21:53:49;;;;;;;5.75;4.70;;;;;;;;;;10035660;28;20489;-58
2023/05/09 21:58:42;;;;;;;8.68;5.07;;;;;;;;;;10036698;28;20136;-58
2023/05/09 22:03:36;;;;;;;6.00;5.40;;;;;;;;;;10049053;28;20144;-58
2023/05/09 22:08:29;;;;;;;5.88;5.15;;;;;;;;;;10035404;28;20050;-58
2023/05/09 22:13:23;;;;;;;7.85;5.40;;;;;;;;;;10033178;28;20056;-58
2023/05/09 22:18:15;;;;;;;5.72;5.05;;;;;;;;;;10030862;28;20056;-58
2023/05/09 22:23:10;;;;;;;5.10;4.65;;;;;;;;;;10038243;28;20052;-58
2023/05/09 22:28:04;;;;;;;9.07;5.40;;;;;;;;;;10036504;28;20099;-58
2023/05/09 22:32:57;;;;;;;5.60;5.00;;;;;;;;;;10025732;28;20116;-58
2023/05/09 22:37:50;;;;;;;7.47;5.30;;;;;;;;;;10032271;28;20072;-59
2023/05/09 22:42:44;;;;;;;6.05;4.55;;;;;;;;;;10036767;28;20077;-58
2023/05/09 22:47:37;;;;;;;6.95;5.78;;;;;;;;;;10026876;28;20133;-58
2023/05/09 22:52:31;;;;;;;5.18;4.68;;;;;;;;;;10032871;28;20066;-59
2023/05/09 22:57:24;;;;;;;6.32;4.88;;;;;;;;;;10036132;28;20076;-59
2023/05/09 23:02:17;;;;;;;6.10;4.72;;;;;;;;;;10041485;28;20424;-58
2023/05/09 23:07:11;;;;;;;6.18;4.80;;;;;;;;;;10031610;28;20149;-59
2023/05/09 23:12:09;;;;;;;5.72;5.22;;;;;;;;;;10037699;28;20053;-58
2023/05/09 23:17:02;;;;;;;5.57;5.07;;;;;;;;;;10033437;28;20058;-58
2023/05/09 23:21:58;;;;;;;6.50;5.00;;;;;;;;;;10035814;28;20549;-59
2023/05/09 23:26:52;;;;;;;6.20;5.20;;;;;;;;;;10032540;28;20050;-59
2023/05/09 23:31:45;;;;;;;5.03;4.57;;;;;;;;;;10029863;28;20092;-58
2023/05/09 23:36:38;;;;;;;7.10;4.43;;;;;;;;;;10038141;28;20054;-58
2023/05/09 23:41:31;;;;;;;6.38;4.13;;;;;;;;;;10033250;28;20448;-58
2023/05/09 23:46:27;;;;;;;5.40;3.97;;;;;;;;;;10041831;28;20096;-58
2023/05/09 23:51:21;;;;;;;4.97;4.50;;;;;;;;;;10038056;28;20393;-58
2023/05/09 23:56:14;;;;;;;5.65;4.10;;;;;;;;;;10036529;28;20059;-58
